Terminal Aerodrome Forecast
Issued by NWS

Home | Current Version | Previous Version | Text Only | Print | Product List | Glossary On
Versions: 1 2 3 4 5 6 7 8 9 10 11 12 13 14 15 16 17 18 19 20 21 22 23 24
232
FTUS41 KGYX 241219 AAA
TAFAUG
TAF AMD
KAUG 241219Z 2412/2512 VRB03KT P6SM SCT080
      TEMPO 2412/2413 3SM BR
     FM241600 VRB03KT 3SM -SHRA BR OVC012
     FM250200 VRB03KT 2SM -DZ BR OVC009 WS015/23030KT=

USA.gov is the U.S. government's official web portal to all federal, state and local government web resources and services.